Time;durP1;ratioP1;P1;durP2;ratioP2;P2;SDS_P1;SDS_P2;PMS_P1;PMS_P2;Temp;Humidity;BMP_temperature;BMP_pressure;BME280_temperature;BME280_humidity;BME280_pressure;Samples;Min_cycle;Max_cycle;Signal;HPM_P1;HPM_P2
2021/05/25 00:00:58;;;;;;;2.50;0.70;;;;;;;7.37;91.02;96069.41;5069091;28;20028;-77
2021/05/25 00:03:25;;;;;;;3.87;0.90;;;;;;;7.38;91.64;96065.00;5051713;28;20033;-76
2021/05/25 00:05:51;;;;;;;3.13;0.77;;;;;;;7.32;91.31;96067.25;5048654;28;20025;-76
2021/05/25 00:08:22;;;;;;;3.20;0.60;;;;;;;7.26;91.18;96065.19;5053083;28;20039;-76
2021/05/25 00:10:48;;;;;;;4.27;1.37;;;;;;;7.17;90.79;96071.28;5047662;28;20039;-76
2021/05/25 00:13:17;;;;;;;2.67;0.50;;;;;;;7.25;91.85;96078.44;5052253;28;20028;-77
2021/05/25 00:15:52;;;;;;;1.67;0.57;;;;;;;7.18;91.03;96078.16;5053992;28;20123;-76
2021/05/25 00:18:21;;;;;;;2.50;0.70;;;;;;;7.18;90.76;96082.56;5049992;28;20442;-76
2021/05/25 00:20:50;;;;;;;3.63;0.50;;;;;;;7.09;91.33;96089.47;5044435;28;20077;-77
2021/05/25 00:23:19;;;;;;;3.93;0.60;;;;;;;7.09;91.42;96094.69;5038627;28;20037;-77
2021/05/25 00:25:46;;;;;;;1.07;0.60;;;;;;;7.08;91.38;96101.72;5052791;28;20071;-76
2021/05/25 00:28:14;;;;;;;2.57;0.70;;;;;;;7.07;91.41;96102.66;5049363;28;20052;-77
2021/05/25 00:30:43;;;;;;;3.70;0.90;;;;;;;7.04;92.00;96099.50;5040313;28;20024;-76
2021/05/25 00:33:17;;;;;;;1.13;0.60;;;;;;;7.02;91.63;96104.06;5053975;28;20558;-77
2021/05/25 00:35:58;;;;;;;2.23;0.70;;;;;;;7.02;91.39;96097.06;5067421;28;20554;-77
2021/05/25 00:38:39;;;;;;;1.57;0.80;;;;;;;7.02;91.37;96099.66;5066650;28;20391;-76
2021/05/25 00:41:07;;;;;;;3.17;0.70;;;;;;;7.01;91.51;96079.72;5048706;28;20043;-77
2021/05/25 00:44:07;;;;;;;2.57;0.77;;;;;;;6.93;90.71;96069.13;5059041;28;20032;-75
2021/05/25 00:46:48;;;;;;;3.10;1.10;;;;;;;6.94;91.25;96070.81;5068043;28;20097;-76
2021/05/25 00:49:15;;;;;;;1.43;0.50;;;;;;;6.95;90.48;96071.63;5050943;28;20095;-76
2021/05/25 00:51:41;;;;;;;2.07;0.70;;;;;;;7.01;91.26;96077.13;5063691;28;20173;-77
2021/05/25 00:54:07;;;;;;;2.13;0.57;;;;;;;7.00;90.23;96078.06;5043222;28;20036;-77
2021/05/25 00:57:15;;;;;;;1.13;0.60;;;;;;;6.94;90.40;96085.63;5067070;28;20082;-77
2021/05/25 00:59:51;;;;;;;4.47;1.03;;;;;;;6.96;90.54;96092.38;5052772;28;20131;-76
2021/05/25 01:02:17;;;;;;;2.07;0.60;;;;;;;6.87;90.72;96087.16;5061053;28;20114;-76
2021/05/25 01:04:43;;;;;;;2.47;1.23;;;;;;;6.85;91.08;96082.91;5050825;28;20032;-77
2021/05/25 01:07:15;;;;;;;3.70;1.20;;;;;;;6.82;91.41;96080.56;5067797;28;20032;-77
2021/05/25 01:09:46;;;;;;;4.80;0.80;;;;;;;6.84;91.64;96077.81;5047274;28;20051;-76
2021/05/25 01:12:16;;;;;;;3.90;0.73;;;;;;;6.87;91.24;96084.56;5050503;28;20032;-77
2021/05/25 01:14:49;;;;;;;3.03;0.80;;;;;;;6.76;91.15;96082.91;5040877;28;20541;-76
2021/05/25 01:17:16;;;;;;;2.92;0.60;;;;;;;6.71;91.13;96075.50;5055680;28;20540;-77
2021/05/25 01:19:43;;;;;;;8.63;3.97;;;;;;;6.67;91.17;96073.28;5046493;28;20025;-77
2021/05/25 01:22:09;;;;;;;7.77;2.30;;;;;;;6.67;90.75;96073.28;5048130;28;20041;-77
2021/05/25 01:24:35;;;;;;;3.07;0.70;;;;;;;6.67;90.43;96065.44;5061027;28;20032;-77
2021/05/25 01:27:04;;;;;;;2.43;1.03;;;;;;;6.66;89.63;96071.66;5076740;28;20024;-77
2021/05/25 01:29:31;;;;;;;2.67;0.60;;;;;;;6.70;88.70;96079.06;5049473;28;20061;-76
2021/05/25 01:31:57;;;;;;;1.07;0.50;;;;;;;6.58;90.13;96086.22;5057075;28;20498;-77
2021/05/25 01:34:23;;;;;;;0.90;0.60;;;;;;;6.54;90.60;96092.72;5062518;28;20064;-76
2021/05/25 01:36:50;;;;;;;1.83;0.60;;;;;;;6.48;90.92;96084.59;5065762;28;20074;-77
2021/05/25 01:39:16;;;;;;;2.73;0.80;;;;;;;6.35;91.45;96077.84;5054236;28;20033;-77
2021/05/25 01:41:43;;;;;;;2.60;0.70;;;;;;;6.40;92.06;96087.06;5068246;28;20033;-77
2021/05/25 01:44:09;;;;;;;2.60;0.67;;;;;;;6.35;92.14;96075.22;5057253;28;20032;-77
2021/05/25 01:46:36;;;;;;;1.70;1.00;;;;;;;6.37;92.37;96083.78;5060608;28;20079;-77
2021/05/25 01:49:02;;;;;;;2.67;0.70;;;;;;;6.40;92.25;96081.81;5059826;28;20081;-76
2021/05/25 01:51:28;;;;;;;4.87;0.63;;;;;;;6.34;92.03;96084.03;5068266;28;20028;-77
2021/05/25 01:54:15;;;;;;;3.37;0.67;;;;;;;6.36;92.66;96076.06;5068232;28;20045;-76
2021/05/25 01:56:41;;;;;;;1.97;0.63;;;;;;;6.35;92.63;96088.28;5071988;28;20516;-77
2021/05/25 01:59:08;;;;;;;3.10;1.17;;;;;;;6.34;92.77;96094.47;5073682;28;20146;-77
2021/05/25 02:01:34;;;;;;;3.53;0.80;;;;;;;6.31;92.83;96089.53;5060447;28;20588;-77
2021/05/25 02:04:00;;;;;;;2.20;0.80;;;;;;;6.31;92.79;96093.94;5053909;28;20125;-77
2021/05/25 02:06:27;;;;;;;3.43;0.70;;;;;;;6.22;92.68;96086.91;5061387;28;20012;-77
2021/05/25 02:08:57;;;;;;;4.27;0.90;;;;;;;6.23;93.07;96086.75;5072725;28;20111;-77
2021/05/25 02:11:32;;;;;;;2.57;0.80;;;;;;;6.14;93.62;96087.59;5074813;28;20036;-77
2021/05/25 02:13:58;;;;;;;1.80;0.60;;;;;;;6.17;93.03;96097.78;5075000;28;20036;-77
2021/05/25 02:16:23;;;;;;;3.63;1.07;;;;;;;6.18;92.67;96099.41;5060873;28;20075;-77
2021/05/25 02:18:50;;;;;;;2.67;0.80;;;;;;;6.21;92.77;96099.16;5052635;28;20140;-77
2021/05/25 02:21:19;;;;;;;1.37;0.63;;;;;;;6.05;93.65;96115.31;5053300;28;20104;-77
2021/05/25 02:23:47;;;;;;;3.80;0.90;;;;;;;6.01;92.96;96107.91;5059786;28;20032;-77
2021/05/25 02:26:13;;;;;;;2.07;0.70;;;;;;;6.03;93.18;96111.19;5054691;28;20378;-77
2021/05/25 02:28:39;;;;;;;2.70;0.67;;;;;;;5.96;93.17;96121.34;5068286;28;20033;-77
2021/05/25 02:31:08;;;;;;;3.27;1.00;;;;;;;5.93;93.44;96115.56;5081034;28;20093;-77
2021/05/25 02:33:34;;;;;;;2.83;0.77;;;;;;;5.86;93.02;96113.44;5076348;28;20031;-77
2021/05/25 02:36:01;;;;;;;1.63;0.80;;;;;;;5.87;93.50;96115.13;5054018;28;20095;-77
2021/05/25 02:38:29;;;;;;;2.60;1.00;;;;;;;5.85;92.73;96117.03;5062987;28;20496;-77
2021/05/25 02:40:56;;;;;;;2.20;1.10;;;;;;;5.85;92.65;96100.53;5060130;28;20166;-77
2021/05/25 02:43:24;;;;;;;2.50;0.77;;;;;;;5.86;92.79;96096.97;5056215;28;20083;-77
2021/05/25 02:45:51;;;;;;;2.60;0.53;;;;;;;6.00;91.45;96111.44;5061174;28;20110;-77
2021/05/25 02:48:18;;;;;;;3.13;0.80;;;;;;;5.90;91.78;96108.78;5078955;28;20032;-77
2021/05/25 02:50:46;;;;;;;6.67;1.23;;;;;;;5.89;90.94;96113.19;5054339;28;20029;-77
2021/05/25 02:53:12;;;;;;;4.77;1.00;;;;;;;5.89;91.40;96115.78;5074671;28;20037;-78
2021/05/25 02:55:40;;;;;;;2.00;0.63;;;;;;;5.82;91.63;96114.69;5068731;28;20658;-77
2021/05/25 02:58:07;;;;;;;3.93;0.93;;;;;;;5.86;91.33;96110.84;5072312;28;20055;-77
2021/05/25 03:00:44;;;;;;;1.67;0.60;;;;;;;5.85;90.87;96119.63;5051741;28;20510;-77
2021/05/25 03:03:11;;;;;;;2.13;0.70;;;;;;;5.77;90.95;96119.47;5044980;28;20040;-77
2021/05/25 03:05:38;;;;;;;1.73;0.60;;;;;;;5.84;89.71;96123.22;5040621;28;20549;-77
2021/05/25 03:08:06;;;;;;;2.50;0.60;;;;;;;5.77;89.49;96116.88;5057744;28;20124;-77
2021/05/25 03:10:34;;;;;;;1.00;0.40;;;;;;;5.82;89.26;96119.06;5056678;28;20028;-76
2021/05/25 03:13:18;;;;;;;6.10;1.23;;;;;;;5.73;89.97;96115.47;5074932;28;20039;-77
2021/05/25 03:15:46;;;;;;;2.20;0.67;;;;;;;5.68;89.75;96138.53;5055038;28;20116;-77
2021/05/25 03:18:13;;;;;;;2.80;0.93;;;;;;;5.72;90.02;96139.91;5061236;28;20028;-77
2021/05/25 03:20:43;;;;;;;1.83;0.73;;;;;;;5.70;90.14;96147.06;5052797;28;20490;-77
2021/05/25 03:28:22;;;;;;;5.00;1.27;;;;;;;5.73;90.00;96151.16;5048266;28;20502;-78
2021/05/25 03:36:09;;;;;;;2.67;0.70;;;;;;;5.52;89.59;96149.44;4928017;29;20115;-78
2021/05/25 03:54:36;;;;;;;2.83;0.70;;;;;;;5.60;86.23;96157.47;4891230;29;20060;-79
2021/05/25 03:57:14;;;;;;;7.33;1.00;;;;;;;5.64;86.46;96160.63;4968998;28;20860;-80
2021/05/25 03:59:40;;;;;;;2.13;0.67;;;;;;;5.74;85.54;96156.28;5067935;28;20044;-79
2021/05/25 04:02:07;;;;;;;4.17;0.93;;;;;;;5.73;86.10;96165.03;5048894;28;20477;-79
2021/05/25 04:05:47;;;;;;;9.60;2.07;;;;;;;5.77;85.41;96163.84;5081151;28;20055;-79
2021/05/25 04:08:54;;;;;;;3.93;0.83;;;;;;;5.81;86.13;96165.22;5069497;28;20093;-79
2021/05/25 04:11:22;;;;;;;3.40;0.73;;;;;;;5.85;86.38;96156.16;5054854;28;20036;-80
2021/05/25 04:13:49;;;;;;;3.50;0.67;;;;;;;5.86;85.87;96154.38;5078475;28;20672;-77
2021/05/25 04:16:15;;;;;;;4.43;0.90;;;;;;;5.91;86.16;96166.09;5064520;28;20082;-77
2021/05/25 04:18:42;;;;;;;2.90;0.50;;;;;;;5.97;85.32;96163.91;5063497;28;20027;-78
2021/05/25 04:21:10;;;;;;;3.30;0.73;;;;;;;6.01;85.01;96166.16;5065789;28;20055;-78
2021/05/25 04:23:46;;;;;;;2.07;0.70;;;;;;;6.06;84.07;96166.56;5063176;28;20173;-80
2021/05/25 04:27:17;;;;;;;4.50;1.10;;;;;;;6.21;83.17;96167.03;5048062;28;20251;-78
2021/05/25 04:30:57;;;;;;;2.93;0.57;;;;;;;6.29;82.01;96159.34;4932544;28;20501;-78
2021/05/25 04:33:26;;;;;;;2.90;0.60;;;;;;;6.38;81.87;96153.31;4983961;28;20050;-78
2021/05/25 04:36:36;;;;;;;3.27;0.80;;;;;;;6.37;82.08;96151.69;5060446;28;20058;-78
2021/05/25 04:39:49;;;;;;;4.50;0.60;;;;;;;6.51;81.60;96152.25;5087365;28;20042;-78
2021/05/25 04:42:21;;;;;;;2.47;0.50;;;;;;;6.53;82.21;96169.41;5073664;28;20441;-78
2021/05/25 04:44:48;;;;;;;3.43;1.03;;;;;;;6.51;81.62;96165.31;5057890;28;20036;-78
2021/05/25 04:47:17;;;;;;;4.67;0.60;;;;;;;6.38;82.09;96171.59;5080309;28;20028;-78
2021/05/25 04:49:43;;;;;;;3.63;0.50;;;;;;;6.31;82.33;96173.09;5069076;28;20051;-78
2021/05/25 04:52:13;;;;;;;3.63;0.80;;;;;;;6.28;81.82;96173.38;5043429;28;20132;-77
2021/05/25 04:54:41;;;;;;;3.90;1.37;;;;;;;6.40;81.87;96175.84;5072773;28;20027;-77
2021/05/25 04:57:10;;;;;;;2.67;0.90;;;;;;;6.43;80.68;96175.59;5064298;28;20023;-76
2021/05/25 04:59:36;;;;;;;2.63;0.60;;;;;;;6.61;80.46;96172.19;5059219;28;22242;-76
2021/05/25 05:02:04;;;;;;;3.30;0.80;;;;;;;6.56;81.36;96184.81;5059002;28;20050;-77
2021/05/25 05:04:29;;;;;;;3.47;0.80;;;;;;;6.44;81.68;96192.91;5074290;28;20036;-77
2021/05/25 05:06:55;;;;;;;6.67;1.73;;;;;;;6.66;79.85;96184.00;5049820;28;20022;-78
2021/05/25 05:09:21;;;;;;;1.80;0.43;;;;;;;6.70;79.73;96198.44;5060973;28;20123;-77
2021/05/25 05:11:47;;;;;;;2.53;0.90;;;;;;;6.88;79.63;96204.66;5062536;28;20039;-79
2021/05/25 05:14:12;;;;;;;1.00;0.30;;;;;;;7.07;78.86;96201.22;5056334;28;20040;-77
2021/05/25 05:16:38;;;;;;;3.40;0.60;;;;;;;7.07;78.93;96201.22;5058506;28;20466;-76
2021/05/25 05:19:04;;;;;;;4.30;0.60;;;;;;;7.17;78.47;96202.03;5060787;28;20122;-77
2021/05/25 05:21:30;;;;;;;1.33;0.73;;;;;;;7.28;77.85;96201.09;5052968;28;20021;-77
2021/05/25 05:23:56;;;;;;;3.23;0.70;;;;;;;7.32;78.15;96198.03;5052846;28;20055;-77
2021/05/25 05:26:21;;;;;;;3.37;0.53;;;;;;;7.49;77.84;96211.38;5054542;28;20052;-77
2021/05/25 05:28:47;;;;;;;1.43;0.40;;;;;;;7.51;76.91;96219.88;5052562;28;20119;-78
2021/05/25 05:31:13;;;;;;;3.47;1.47;;;;;;;7.47;77.15;96229.00;5055611;28;20714;-77
2021/05/25 05:33:39;;;;;;;5.17;0.67;;;;;;;7.43;77.74;96232.84;5076514;28;20039;-77
2021/05/25 05:36:06;;;;;;;4.03;0.97;;;;;;;7.38;77.85;96243.75;5073235;28;20102;-77
2021/05/25 05:38:31;;;;;;;4.70;0.50;;;;;;;7.16;77.74;96225.72;5055439;28;20654;-77
2021/05/25 05:41:04;;;;;;;4.33;0.80;;;;;;;7.09;77.42;96234.13;5056052;28;20081;-77
2021/05/25 05:43:34;;;;;;;2.00;0.50;;;;;;;7.15;77.14;96235.38;5058535;28;20489;-77
2021/05/25 05:46:00;;;;;;;4.27;0.63;;;;;;;7.31;76.62;96235.63;5074058;28;20731;-77
2021/05/25 05:48:27;;;;;;;1.83;0.30;;;;;;;7.43;76.28;96245.94;5067430;28;20122;-78
2021/05/25 05:50:53;;;;;;;2.03;0.60;;;;;;;7.27;75.96;96252.53;5063870;28;20511;-77
2021/05/25 05:53:28;;;;;;;1.80;0.70;;;;;;;7.22;75.79;96244.31;5064572;28;20024;-78
2021/05/25 05:55:54;;;;;;;2.23;0.50;;;;;;;7.28;76.56;96250.78;5058293;28;20505;-78
2021/05/25 05:58:33;;;;;;;3.47;0.50;;;;;;;7.40;76.10;96254.06;5057894;28;20031;-78
2021/05/25 06:00:58;;;;;;;2.33;0.63;;;;;;;7.40;76.08;96248.84;5062388;28;20032;-78
2021/05/25 06:03:24;;;;;;;2.70;0.63;;;;;;;7.28;76.80;96263.84;5055043;28;20039;-78
2021/05/25 06:05:50;;;;;;;2.60;0.50;;;;;;;7.25;76.51;96267.56;5061713;28;20124;-77
2021/05/25 06:08:17;;;;;;;2.00;0.70;;;;;;;7.51;76.30;96272.22;5059832;28;20035;-78
2021/05/25 06:10:50;;;;;;;1.83;0.40;;;;;;;7.79;75.53;96274.00;5086842;28;20694;-79
2021/05/25 06:13:25;;;;;;;2.43;0.60;;;;;;;7.80;75.67;96275.63;5063355;28;20032;-78
2021/05/25 06:15:55;;;;;;;4.03;0.50;;;;;;;8.12;74.78;96273.63;5068325;28;20027;-79
2021/05/25 06:18:21;;;;;;;1.97;0.60;;;;;;;8.49;72.76;96268.41;5058149;28;20059;-78
2021/05/25 06:20:47;;;;;;;3.07;0.70;;;;;;;8.96;71.64;96261.22;5091385;28;20059;-78
2021/05/25 06:23:13;;;;;;;3.80;0.53;;;;;;;9.49;69.37;96258.75;5061763;28;20240;-78
2021/05/25 06:25:40;;;;;;;1.97;0.50;;;;;;;9.05;70.99;96266.56;5057747;28;20448;-78
2021/05/25 06:28:05;;;;;;;4.17;0.70;;;;;;;8.69;70.47;96269.13;5081447;28;20031;-78
2021/05/25 06:30:32;;;;;;;5.53;0.70;;;;;;;8.56;72.23;96269.47;5063630;28;20092;-79
2021/05/25 06:32:59;;;;;;;2.27;0.70;;;;;;;9.05;68.55;96270.00;5063873;28;20020;-78
2021/05/25 06:35:36;;;;;;;4.90;0.70;;;;;;;8.65;69.83;96266.00;5061040;28;20112;-79
2021/05/25 06:38:02;;;;;;;1.80;0.53;;;;;;;9.68;67.37;96263.81;5074824;28;20118;-79
2021/05/25 06:40:29;;;;;;;3.47;0.70;;;;;;;9.36;67.44;96275.72;5067202;28;20031;-79
2021/05/25 06:42:55;;;;;;;2.77;0.60;;;;;;;10.03;65.45;96262.94;5071277;28;20480;-79
2021/05/25 06:45:21;;;;;;;1.30;0.40;;;;;;;10.42;64.01;96270.38;5059873;28;20036;-78
2021/05/25 06:47:47;;;;;;;4.13;1.60;;;;;;;10.48;64.92;96279.44;5062226;28;20248;-79
2021/05/25 06:50:14;;;;;;;2.20;0.50;;;;;;;9.65;65.39;96270.19;5074763;28;20091;-79
2021/05/25 06:52:43;;;;;;;2.43;0.60;;;;;;;10.05;62.99;96274.09;5059214;28;20033;-79
2021/05/25 06:55:11;;;;;;;2.10;0.47;;;;;;;10.09;63.81;96274.59;5094155;28;20065;-78
2021/05/25 06:57:37;;;;;;;3.77;0.70;;;;;;;10.37;63.53;96273.50;5055895;28;20028;-78
2021/05/25 07:00:06;;;;;;;1.73;0.50;;;;;;;10.18;62.92;96278.94;5065561;28;20044;-79
2021/05/25 07:02:31;;;;;;;1.10;0.53;;;;;;;9.53;64.21;96275.88;5064469;28;20032;-78
2021/05/25 07:04:57;;;;;;;2.27;0.63;;;;;;;9.23;64.84;96291.00;5060295;28;20494;-78
2021/05/25 07:07:23;;;;;;;2.43;0.40;;;;;;;9.15;64.88;96286.53;5059396;28;20032;-78
2021/05/25 07:09:49;;;;;;;3.33;0.50;;;;;;;9.26;64.52;96289.91;5075980;28;20032;-79
2021/05/25 07:12:14;;;;;;;2.13;0.50;;;;;;;9.22;65.24;96302.47;5062625;28;20036;-78
2021/05/25 07:14:41;;;;;;;2.13;0.53;;;;;;;9.31;66.55;96306.00;5075104;28;20036;-80
2021/05/25 07:17:07;;;;;;;2.23;0.50;;;;;;;8.88;66.34;96304.91;5083047;28;20064;-78
2021/05/25 07:19:33;;;;;;;2.13;0.57;;;;;;;8.77;65.95;96315.59;5076930;28;20062;-78
2021/05/25 07:22:00;;;;;;;2.40;0.57;;;;;;;8.80;65.91;96315.31;5080228;28;20437;-78
2021/05/25 07:24:27;;;;;;;2.17;0.67;;;;;;;8.84;66.47;96325.34;5073301;28;20036;-78
2021/05/25 07:26:53;;;;;;;1.30;0.50;;;;;;;8.78;67.44;96323.31;5066592;28;20032;-78
2021/05/25 07:29:19;;;;;;;3.20;0.50;;;;;;;9.07;66.14;96315.28;5063435;28;20032;-78
2021/05/25 07:31:45;;;;;;;1.67;0.53;;;;;;;9.25;65.44;96322.34;5056341;28;20117;-78
2021/05/25 07:34:11;;;;;;;1.53;0.60;;;;;;;9.44;64.38;96306.47;5083923;28;20032;-78
2021/05/25 07:36:37;;;;;;;1.53;0.43;;;;;;;10.45;62.12;96306.88;5066722;28;20020;-79
2021/05/25 07:39:05;;;;;;;4.40;0.60;;;;;;;11.57;58.74;96282.84;5091006;28;20063;-79
2021/05/25 07:41:31;;;;;;;2.53;0.60;;;;;;;11.48;57.52;96281.19;5047138;28;20043;-79
2021/05/25 07:43:56;;;;;;;1.70;0.60;;;;;;;10.95;59.99;96302.66;5058408;28;20036;-79
2021/05/25 07:46:25;;;;;;;1.73;0.60;;;;;;;10.55;62.02;96297.06;5062146;28;20031;-78
2021/05/25 07:48:53;;;;;;;1.87;0.60;;;;;;;10.38;60.44;96292.72;5047973;28;20557;-78
2021/05/25 07:51:19;;;;;;;3.93;0.80;;;;;;;9.86;62.29;96298.78;5052706;28;20060;-79
2021/05/25 07:53:46;;;;;;;5.00;0.60;;;;;;;9.70;61.90;96292.56;5067605;28;20070;-78
2021/05/25 07:56:12;;;;;;;3.40;1.33;;;;;;;9.75;61.37;96296.38;5057039;28;20028;-78
2021/05/25 07:58:38;;;;;;;2.00;0.60;;;;;;;9.83;60.85;96304.31;5056084;28;20032;-78
2021/05/25 08:01:04;;;;;;;2.87;0.60;;;;;;;9.94;61.73;96292.75;5072704;28;20374;-78
2021/05/25 08:03:30;;;;;;;3.47;0.70;;;;;;;9.90;61.26;96288.78;5073282;28;20036;-78
2021/05/25 08:05:58;;;;;;;2.90;0.50;;;;;;;9.80;60.72;96299.38;5065610;28;20034;-78
2021/05/25 08:08:25;;;;;;;3.90;1.23;;;;;;;10.83;59.49;96297.69;5056040;28;20056;-78
2021/05/25 08:10:51;;;;;;;5.13;0.83;;;;;;;11.73;57.26;96281.19;5056591;28;20157;-78
2021/05/25 08:13:17;;;;;;;3.13;0.60;;;;;;;12.56;55.55;96277.47;5071455;28;20126;-78
2021/05/25 08:15:43;;;;;;;1.03;0.40;;;;;;;12.39;54.90;96281.97;5065535;28;20035;-78
2021/05/25 08:20:38;;;;;;;2.57;0.47;;;;;;;11.79;54.74;96285.81;5072272;28;20066;-79
2021/05/25 08:23:07;;;;;;;2.27;0.50;;;;;;;11.70;53.45;96276.25;5072112;28;20036;-79
2021/05/25 08:25:34;;;;;;;1.40;0.43;;;;;;;12.20;54.28;96304.25;5056575;28;20079;-79
2021/05/25 08:28:01;;;;;;;4.40;0.70;;;;;;;11.31;55.54;96304.06;5054756;28;20043;-78
2021/05/25 08:30:30;;;;;;;1.30;0.30;;;;;;;10.69;56.00;96307.97;5065217;28;20051;-78
2021/05/25 08:32:56;;;;;;;7.10;2.33;;;;;;;10.26;58.12;96309.72;5072712;28;20051;-78
2021/05/25 08:35:24;;;;;;;3.93;1.37;;;;;;;10.12;59.11;96317.16;5053257;28;20102;-78
2021/05/25 08:37:56;;;;;;;2.57;0.53;;;;;;;10.21;62.31;96320.69;5055205;28;20031;-79
2021/05/25 08:40:24;;;;;;;1.70;0.40;;;;;;;9.62;60.89;96314.31;5060118;28;20032;-79
2021/05/25 08:42:51;;;;;;;3.30;0.80;;;;;;;9.66;61.00;96316.50;5055113;28;20082;-80
2021/05/25 08:45:20;;;;;;;3.67;1.00;;;;;;;9.71;61.44;96325.72;5056445;28;20066;-78
2021/05/25 08:47:48;;;;;;;3.27;0.70;;;;;;;9.91;61.05;96320.13;5055080;28;20020;-78
2021/05/25 08:50:15;;;;;;;3.60;1.07;;;;;;;9.78;59.23;96335.47;5071893;28;20020;-78
2021/05/25 08:52:44;;;;;;;1.40;0.60;;;;;;;9.86;59.59;96326.84;5069275;28;20039;-78
2021/05/25 08:55:12;;;;;;;3.33;1.10;;;;;;;10.08;59.18;96331.59;5061128;28;20096;-79
2021/05/25 08:57:43;;;;;;;2.83;0.33;;;;;;;10.27;57.31;96327.16;5071665;28;20031;-79
2021/05/25 09:00:15;;;;;;;1.57;0.57;;;;;;;10.23;58.15;96329.25;5067456;28;20040;-79
2021/05/25 09:03:45;;;;;;;4.10;0.50;;;;;;;10.31;61.52;96334.56;5055047;28;20040;-79
2021/05/25 09:06:13;;;;;;;2.60;0.53;;;;;;;10.61;61.12;96335.88;5065710;28;20036;-79
2021/05/25 09:09:08;;;;;;;2.93;0.50;;;;;;;10.17;61.36;96334.28;5069742;28;20315;-78
2021/05/25 09:11:58;;;;;;;2.83;0.60;;;;;;;9.98;62.54;96336.13;5055004;28;20036;-78
2021/05/25 09:14:25;;;;;;;4.83;0.57;;;;;;;9.90;62.44;96342.13;5067267;28;20485;-78
2021/05/25 09:17:10;;;;;;;2.77;0.57;;;;;;;9.99;62.37;96335.13;5060640;28;20036;-78
2021/05/25 09:19:53;;;;;;;2.67;0.77;;;;;;;10.10;60.66;96332.28;5069906;28;20039;-78
2021/05/25 09:22:30;;;;;;;2.80;0.60;;;;;;;10.12;60.47;96332.91;5061347;28;20024;-78
2021/05/25 09:24:57;;;;;;;3.37;0.53;;;;;;;9.74;62.76;96346.44;5054128;28;20444;-78
2021/05/25 09:27:36;;;;;;;2.13;0.70;;;;;;;9.61;65.47;96350.25;5058777;28;20028;-78
2021/05/25 09:30:13;;;;;;;3.83;1.07;;;;;;;9.91;65.95;96346.41;5063961;28;20497;-78
2021/05/25 09:32:48;;;;;;;3.30;0.80;;;;;;;9.60;64.04;96340.72;5055260;28;20654;-77
2021/05/25 09:35:19;;;;;;;6.40;0.67;;;;;;;9.84;66.35;96344.56;5056047;28;20040;-77
2021/05/25 09:37:46;;;;;;;4.33;0.57;;;;;;;10.05;67.74;96346.84;5052498;28;20393;-77
2021/05/25 09:40:15;;;;;;;1.87;0.67;;;;;;;9.93;63.87;96354.16;5053934;28;20028;-78
2021/05/25 09:42:41;;;;;;;3.77;1.10;;;;;;;9.86;66.20;96353.13;5063087;28;20576;-77
2021/05/25 09:45:13;;;;;;;4.90;0.50;;;;;;;9.71;64.13;96360.69;5059031;28;20094;-77
2021/05/25 09:47:41;;;;;;;1.70;0.43;;;;;;;9.86;66.44;96361.81;5066110;28;20046;-78
2021/05/25 09:50:10;;;;;;;2.47;0.50;;;;;;;9.88;65.26;96369.53;5073484;28;20035;-78
2021/05/25 09:52:36;;;;;;;6.53;3.00;;;;;;;9.63;64.40;96358.81;5055359;28;20078;-78
2021/05/25 09:55:07;;;;;;;3.90;0.70;;;;;;;9.60;63.98;96367.00;5060968;28;20493;-77
2021/05/25 09:57:59;;;;;;;2.10;0.70;;;;;;;9.42;65.06;96376.63;5061413;28;20020;-77
2021/05/25 10:00:34;;;;;;;1.73;0.40;;;;;;;9.52;65.23;96376.56;5067826;28;20070;-78
2021/05/25 10:03:08;;;;;;;5.03;0.60;;;;;;;9.58;64.83;96366.31;5079165;28;20036;-78
2021/05/25 10:05:35;;;;;;;2.33;0.40;;;;;;;9.53;64.79;96388.75;5050745;28;20036;-77
2021/05/25 10:08:02;;;;;;;4.57;0.67;;;;;;;9.51;61.59;96388.88;5059323;28;20035;-78
2021/05/25 10:10:33;;;;;;;2.30;0.37;;;;;;;9.47;62.50;96384.09;5060208;28;20048;-78
2021/05/25 10:13:00;;;;;;;1.13;0.30;;;;;;;9.41;62.20;96396.00;5068375;28;20079;-78
2021/05/25 10:15:27;;;;;;;2.13;0.57;;;;;;;9.45;62.88;96400.78;5062642;28;20036;-77
2021/05/25 10:20:20;;;;;;;1.60;0.40;;;;;;;9.36;62.49;96420.06;5081973;28;20039;-79
2021/05/25 10:22:46;;;;;;;3.10;0.50;;;;;;;9.52;64.24;96403.66;5069534;28;20078;-78
2021/05/25 10:25:15;;;;;;;2.20;0.40;;;;;;;9.76;63.95;96404.88;5069652;28;20475;-78
2021/05/25 10:27:42;;;;;;;2.43;0.30;;;;;;;9.76;62.67;96415.38;5068692;28;20028;-78
2021/05/25 10:30:21;;;;;;;2.50;0.70;;;;;;;9.99;62.39;96413.94;5083280;28;20020;-78
2021/05/25 10:32:47;;;;;;;1.27;0.50;;;;;;;10.56;63.15;96410.97;5054353;28;20040;-78
2021/05/25 10:35:17;;;;;;;1.37;0.70;;;;;;;10.66;60.93;96411.66;5056463;28;20082;-78
2021/05/25 10:38:04;;;;;;;3.33;0.60;;;;;;;10.88;60.55;96402.44;5056101;28;20040;-78
2021/05/25 10:40:43;;;;;;;2.43;0.70;;;;;;;11.40;59.87;96399.69;5071367;28;20038;-78
2021/05/25 10:43:34;;;;;;;1.60;0.43;;;;;;;11.45;58.04;96412.38;5070993;28;20486;-78
2021/05/25 10:46:12;;;;;;;2.67;0.50;;;;;;;11.55;55.93;96405.97;5056546;28;20036;-78
2021/05/25 10:49:03;;;;;;;4.00;0.50;;;;;;;11.42;55.85;96397.72;5064874;28;20061;-79
2021/05/25 10:51:48;;;;;;;4.40;0.77;;;;;;;11.39;54.26;96391.94;5055955;28;20024;-79
2021/05/25 10:54:35;;;;;;;1.33;0.30;;;;;;;11.92;53.64;96402.13;5058407;28;20079;-79
2021/05/25 10:57:30;;;;;;;1.57;0.50;;;;;;;12.97;52.51;96397.69;5070891;28;20032;-79
2021/05/25 11:00:12;;;;;;;1.70;0.47;;;;;;;13.11;49.48;96395.34;5056288;28;20404;-79
2021/05/25 11:03:02;;;;;;;5.40;1.90;;;;;;;14.12;47.48;96391.84;5071778;28;20127;-79
2021/05/25 11:05:28;;;;;;;4.23;0.97;;;;;;;14.60;48.18;96392.44;5059400;28;20121;-79
2021/05/25 11:08:17;;;;;;;3.33;0.73;;;;;;;15.21;46.26;96393.09;5063814;28;20070;-75
2021/05/25 11:10:51;;;;;;;2.30;0.50;;;;;;;14.46;45.70;96387.91;5049069;28;20024;-76
2021/05/25 11:13:23;;;;;;;1.90;0.50;;;;;;;14.77;45.21;96385.97;5077563;28;20035;-77
2021/05/25 11:16:02;;;;;;;1.40;0.50;;;;;;;15.66;45.43;96391.22;5073423;28;20092;-76
2021/05/25 11:18:36;;;;;;;2.67;0.63;;;;;;;16.08;44.99;96386.94;5065364;28;20126;-77
2021/05/25 11:21:46;;;;;;;4.20;0.97;;;;;;;15.84;46.71;96382.84;5052151;28;20032;-76
2021/05/25 11:23:51;;;;;;;1.80;0.50;;;;;;;13.78;46.53;96371.94;5068462;28;20052;-76
2021/05/25 11:27:04;;;;;;;2.20;0.40;;;;;;;13.71;48.38;96378.06;5063033;28;20038;-76
2021/05/25 11:29:33;;;;;;;2.43;0.70;;;;;;;12.76;50.26;96392.16;5036639;28;20046;-76
2021/05/25 11:32:05;;;;;;;3.23;0.60;;;;;;;12.29;50.92;96392.06;5058707;28;20023;-76
2021/05/25 11:34:31;;;;;;;2.27;0.50;;;;;;;12.10;51.56;96396.69;5070992;28;20028;-76
2021/05/25 11:36:59;;;;;;;3.00;0.70;;;;;;;11.81;52.02;96399.78;5069443;28;20382;-76
2021/05/25 11:39:26;;;;;;;1.03;0.67;;;;;;;11.49;54.13;96437.41;5066132;28;20047;-76
2021/05/25 11:41:52;;;;;;;10.30;3.77;;;;;;;10.03;66.03;96454.72;5059504;28;20058;-76
2021/05/25 11:44:20;;;;;;;3.70;0.70;;;;;;;9.74;72.49;96475.94;5076394;28;20460;-75
2021/05/25 11:46:49;;;;;;;2.17;0.53;;;;;;;9.02;74.00;96461.81;5068126;28;20051;-76
2021/05/25 11:49:18;;;;;;;2.30;0.50;;;;;;;9.37;74.72;96445.34;5057076;28;20048;-76
2021/05/25 11:51:44;;;;;;;2.20;0.47;;;;;;;9.45;73.94;96441.97;5066163;28;20030;-76
2021/05/25 11:54:15;;;;;;;2.63;0.60;;;;;;;9.72;75.58;96442.91;5066923;28;20031;-76
2021/05/25 11:56:51;;;;;;;2.70;0.57;;;;;;;9.72;74.04;96450.78;5068765;28;20031;-76
2021/05/25 11:59:22;;;;;;;1.63;0.57;;;;;;;11.09;72.79;96436.25;5053128;28;20151;-76
2021/05/25 12:01:52;;;;;;;3.03;0.63;;;;;;;11.56;68.92;96427.88;5058294;28;20402;-76
2021/05/25 12:04:20;;;;;;;1.60;0.60;;;;;;;11.64;67.32;96430.53;5072240;28;20042;-75
2021/05/25 12:06:49;;;;;;;3.13;0.67;;;;;;;11.80;68.10;96435.00;5056678;28;20036;-75
2021/05/25 12:09:15;;;;;;;3.97;0.80;;;;;;;12.11;68.65;96429.16;5057859;28;20028;-73
2021/05/25 12:11:43;;;;;;;1.63;0.50;;;;;;;12.36;66.39;96424.72;5047643;28;20024;-74
2021/05/25 12:14:10;;;;;;;9.70;2.40;;;;;;;11.64;67.22;96432.34;5086898;28;20398;-73
2021/05/25 12:16:36;;;;;;;3.23;1.40;;;;;;;10.96;66.93;96446.38;5059445;28;20065;-73
2021/05/25 12:19:07;;;;;;;2.73;0.70;;;;;;;10.56;68.96;96456.50;5059052;28;20371;-74
2021/05/25 12:21:37;;;;;;;9.47;4.40;;;;;;;10.14;69.31;96483.41;5048126;28;20862;-74
2021/05/25 12:24:03;;;;;;;2.50;0.67;;;;;;;9.66;72.67;96510.81;5069038;28;20084;-75
2021/05/25 12:26:28;;;;;;;4.53;0.87;;;;;;;9.11;76.98;96550.13;5069317;28;20101;-75
2021/05/25 12:28:56;;;;;;;3.37;0.70;;;;;;;7.78;81.80;96521.06;5064001;28;20489;-74